createdAt,value
2018-01-15T00:00:57.086Z,24.87
2018-01-15T00:03:26.240Z,21.63
2018-01-15T00:05:54.977Z,24.77
2018-01-15T00:08:24.133Z,23.53
2018-01-15T00:10:52.550Z,31.70
2018-01-15T00:13:21.844Z,24.07
2018-01-15T00:15:50.992Z,21.53
2018-01-15T00:18:19.383Z,30.43
2018-01-15T00:20:47.807Z,26.63
2018-01-15T00:23:17.205Z,24.90
2018-01-15T00:25:46.362Z,32.63
2018-01-15T00:28:14.965Z,26.77
2018-01-15T00:30:43.355Z,24.03
2018-01-15T00:33:11.751Z,24.07
2018-01-15T00:35:41.148Z,32.33
2018-01-15T00:38:10.299Z,23.97
2018-01-15T00:40:38.751Z,27.20
2018-01-15T00:43:07.174Z,29.60
2018-01-15T00:45:35.576Z,27.37
2018-01-15T00:48:04.014Z,36.40
2018-01-15T00:50:32.431Z,44.83
2018-01-15T00:53:00.826Z,28.40
2018-01-15T00:55:29.992Z,41.83
2018-01-15T00:57:58.516Z,22.93
2018-01-15T01:00:27.363Z,27.97
2018-01-15T01:02:55.756Z,24.70
2018-01-15T01:05:24.270Z,31.37
2018-01-15T01:07:52.994Z,25.60
2018-01-15T01:10:21.377Z,32.50
2018-01-15T01:12:49.833Z,31.20
2018-01-15T01:15:18.260Z,22.60
2018-01-15T01:17:46.663Z,30.87
2018-01-15T01:20:15.933Z,26.70
2018-01-15T01:22:45.828Z,30.80
2018-01-15T01:25:15.064Z,23.77
2018-01-15T01:27:44.655Z,27.80
2018-01-15T01:30:13.050Z,37.23
2018-01-15T01:32:42.260Z,41.10
2018-01-15T01:35:11.528Z,34.93
2018-01-15T01:37:40.011Z,34.97
2018-01-15T01:40:08.487Z,29.50
2018-01-15T01:42:36.909Z,46.97
2018-01-15T01:45:05.374Z,34.77
2018-01-15T01:47:34.545Z,28.73
2018-01-15T01:50:03.987Z,21.90
2018-01-15T01:52:33.183Z,30.23
2018-01-15T01:55:02.337Z,17.87
2018-01-15T01:57:30.774Z,23.73
2018-01-15T01:59:59.155Z,21.97
2018-01-15T02:02:27.563Z,30.50
2018-01-15T02:04:55.982Z,20.73
2018-01-15T02:07:25.138Z,16.67
2018-01-15T02:09:53.930Z,25.03
2018-01-15T02:12:22.337Z,29.00
2018-01-15T02:14:51.518Z,24.40
2018-01-15T02:17:20.682Z,19.90
2018-01-15T02:19:49.197Z,36.43
2018-01-15T02:22:17.586Z,48.13
2018-01-15T02:24:46.026Z,49.47
2018-01-15T02:27:15.079Z,43.20
2018-01-15T02:29:43.462Z,44.10
2018-01-15T02:32:12.676Z,40.93
2018-01-15T02:34:41.142Z,40.97
2018-01-15T02:37:10.312Z,20.97
2018-01-15T02:39:38.733Z,30.30
2018-01-15T02:42:07.396Z,38.07
2018-01-15T02:44:36.545Z,29.80
2018-01-15T02:47:04.926Z,20.23
2018-01-15T02:49:33.586Z,26.27
2018-01-15T02:52:02.194Z,14.57
2018-01-15T02:54:30.573Z,21.87
2018-01-15T02:56:58.990Z,12.70
2018-01-15T02:59:27.372Z,4.37
2018-01-15T03:01:55.735Z,6.53
2018-01-15T03:04:24.272Z,11.17
2018-01-15T03:06:52.703Z,19.77
2018-01-15T03:09:21.091Z,8.17
2018-01-15T03:11:49.951Z,31.43
2018-01-15T03:14:18.342Z,16.20
2018-01-15T03:16:46.766Z,13.10
2018-01-15T03:19:15.480Z,16.87
2018-01-15T03:21:43.880Z,8.97
2018-01-15T03:24:12.262Z,12.63
2018-01-15T03:26:41.072Z,27.70
2018-01-15T03:29:09.835Z,25.83
2018-01-15T03:31:38.228Z,9.57
2018-01-15T03:34:06.813Z,12.17
2018-01-15T03:36:35.206Z,21.40
2018-01-15T03:39:03.692Z,20.00
2018-01-15T03:41:32.928Z,28.47
2018-01-15T03:44:01.313Z,20.93
2018-01-15T03:46:29.823Z,23.57
2018-01-15T03:48:58.336Z,27.13
2018-01-15T03:51:27.484Z,17.37
2018-01-15T03:53:56.159Z,14.77
2018-01-15T03:56:25.446Z,20.43
2018-01-15T03:58:53.821Z,21.10
2018-01-15T04:01:22.193Z,23.63
2018-01-15T04:03:50.634Z,15.17
2018-01-15T04:06:19.036Z,12.60
2018-01-15T04:08:48.179Z,18.70
2018-01-15T04:11:16.795Z,17.10
2018-01-15T04:13:45.577Z,16.57
2018-01-15T04:16:13.982Z,15.73
2018-01-15T04:18:43.523Z,24.23
2018-01-15T04:21:11.909Z,15.77
2018-01-15T04:23:40.335Z,27.43
2018-01-15T04:26:09.616Z,15.30
2018-01-15T04:28:38.030Z,23.60
2018-01-15T04:31:07.390Z,12.90
2018-01-15T04:33:35.907Z,16.70
2018-01-15T04:36:05.091Z,24.40
2018-01-15T04:38:33.474Z,16.60
2018-01-15T04:41:02.036Z,18.47
2018-01-15T04:43:30.451Z,16.70
2018-01-15T04:45:59.593Z,12.53
2018-01-15T04:48:28.197Z,18.83
2018-01-15T04:50:56.609Z,14.83
2018-01-15T04:53:26.694Z,20.00
2018-01-15T04:55:55.311Z,30.90
2018-01-15T04:58:24.443Z,25.80
2018-01-15T05:00:52.831Z,26.87
2018-01-15T05:03:21.398Z,23.97
2018-01-15T05:05:49.774Z,12.90
2018-01-15T05:08:18.172Z,15.83
2018-01-15T05:10:46.726Z,27.00
2018-01-15T05:13:15.892Z,29.47
2018-01-15T05:15:45.264Z,18.50
2018-01-15T05:18:13.978Z,17.50
2018-01-15T05:20:42.364Z,27.40
2018-01-15T05:23:10.738Z,29.37
2018-01-15T05:25:39.246Z,17.07
2018-01-15T05:28:08.374Z,27.80
2018-01-15T05:30:36.777Z,31.43
2018-01-15T05:33:07.204Z,27.17
2018-01-15T05:35:35.589Z,31.47
2018-01-15T05:38:03.983Z,27.17
2018-01-15T05:40:32.443Z,21.10
2018-01-15T05:43:00.844Z,19.27
2018-01-15T05:45:29.236Z,34.87
2018-01-15T05:47:58.730Z,29.67
2018-01-15T05:50:27.115Z,23.53
2018-01-15T05:52:55.497Z,29.53
2018-01-15T05:55:24.867Z,10.57
2018-01-15T05:57:53.295Z,22.67
2018-01-15T06:00:22.473Z,28.97
2018-01-15T06:02:51.864Z,17.00
2018-01-15T06:05:20.245Z,10.40
2018-01-15T06:07:48.623Z,23.97
2018-01-15T06:10:17.523Z,33.57
2018-01-15T06:12:46.675Z,22.23
2018-01-15T06:15:15.063Z,29.10
2018-01-15T06:17:44.115Z,21.43
2018-01-15T06:20:12.530Z,26.60
2018-01-15T06:22:40.945Z,25.50
2018-01-15T06:25:09.365Z,24.60
2018-01-15T06:27:37.749Z,31.47
2018-01-15T06:30:06.188Z,44.03
2018-01-15T06:32:35.667Z,14.87
2018-01-15T06:35:04.602Z,22.33
2018-01-15T06:37:33.742Z,26.70
2018-01-15T06:40:02.271Z,36.53
2018-01-15T06:42:31.432Z,21.77
2018-01-15T06:44:59.870Z,24.20
2018-01-15T06:47:28.313Z,19.80
2018-01-15T06:49:56.692Z,23.87
2018-01-15T06:52:25.142Z,29.43
2018-01-15T06:54:53.750Z,22.53
2018-01-15T06:57:22.141Z,27.30
2018-01-15T06:59:50.785Z,18.53
2018-01-15T07:02:19.226Z,26.70
2018-01-15T07:04:47.608Z,39.00
2018-01-15T07:07:16.024Z,29.47
2018-01-15T07:09:44.643Z,32.47
2018-01-15T07:12:13.038Z,23.73
2018-01-15T07:14:42.249Z,28.40
2018-01-15T07:17:10.671Z,33.33
2018-01-15T07:19:39.459Z,28.57
2018-01-15T07:22:07.873Z,26.37
2018-01-15T07:24:37.173Z,35.33
2018-01-15T07:27:06.362Z,17.17
2018-01-15T07:29:34.760Z,39.43
2018-01-15T07:32:04.243Z,23.03
2018-01-15T07:34:32.664Z,38.80
2018-01-15T07:37:01.109Z,33.60
2018-01-15T07:39:29.611Z,39.23
2018-01-15T07:41:58.866Z,33.10
2018-01-15T07:44:28.013Z,33.60
2018-01-15T07:46:56.492Z,36.00
2018-01-15T07:49:24.924Z,35.63
2018-01-15T07:51:53.321Z,34.03
2018-01-15T07:54:21.845Z,31.27
2018-01-15T07:56:50.225Z,42.80
2018-01-15T07:59:18.626Z,29.10
2018-01-15T08:01:47.242Z,36.63
2018-01-15T08:04:15.623Z,31.57
2018-01-15T08:06:44.022Z,36.13
2018-01-15T08:09:13.422Z,41.90
2018-01-15T08:11:42.586Z,23.37
2018-01-15T08:14:10.991Z,22.17
2018-01-15T08:16:39.555Z,33.40
2018-01-15T08:19:07.968Z,39.43
2018-01-15T08:21:36.821Z,36.20
2018-01-15T08:24:05.265Z,38.40
2018-01-15T08:26:33.687Z,40.83
2018-01-15T08:29:02.164Z,32.83
2018-01-15T08:31:30.678Z,31.50
2018-01-15T08:33:59.835Z,28.80
2018-01-15T08:36:28.319Z,34.50
2018-01-15T08:38:57.970Z,40.53
2018-01-15T08:41:26.363Z,34.13
2018-01-15T08:43:54.765Z,42.50
2018-01-15T08:46:23.217Z,24.33
2018-01-15T08:48:51.595Z,28.60
2018-01-15T08:51:20.136Z,36.43
2018-01-15T08:53:48.572Z,40.57
2018-01-15T08:56:16.945Z,26.20
2018-01-15T08:58:45.356Z,41.30
2018-01-15T09:01:13.940Z,39.50
2018-01-15T09:03:42.391Z,40.03
2018-01-15T09:06:10.789Z,23.83
2018-01-15T09:08:39.303Z,41.50
2018-01-15T09:11:07.768Z,39.53
2018-01-15T09:13:36.177Z,38.87
2018-01-15T09:16:05.505Z,37.83
2018-01-15T09:18:33.898Z,32.77
2018-01-15T09:21:02.278Z,37.30
2018-01-15T09:23:31.199Z,38.33
2018-01-15T09:25:59.594Z,38.27
2018-01-15T09:28:28.943Z,43.43
2018-01-15T09:30:57.456Z,45.70
2018-01-15T09:33:26.601Z,38.10
2018-01-15T09:35:54.993Z,31.73
2018-01-15T09:38:23.771Z,35.37
2018-01-15T09:40:52.544Z,32.20
2018-01-15T09:43:21.705Z,27.70
2018-01-15T09:45:50.251Z,39.30
2018-01-15T09:48:18.666Z,46.83
2018-01-15T09:50:47.083Z,34.60
2018-01-15T09:53:16.615Z,36.50
2018-01-15T09:55:45.031Z,34.50
2018-01-15T09:58:13.409Z,37.83
2018-01-15T10:00:41.979Z,40.57
2018-01-15T10:03:10.419Z,35.33
2018-01-15T10:05:38.842Z,32.20
2018-01-15T10:08:07.334Z,34.83
2018-01-15T10:10:35.724Z,41.90
2018-01-15T10:13:04.123Z,38.17
2018-01-15T10:15:32.780Z,36.70
2018-01-15T10:18:01.824Z,39.33
2018-01-15T10:20:30.203Z,37.80
2018-01-15T10:22:59.591Z,48.67
2018-01-15T10:25:29.061Z,28.67
2018-01-15T10:27:57.458Z,36.83
2018-01-15T10:30:25.908Z,33.67
2018-01-15T10:32:54.297Z,31.30
2018-01-15T10:35:22.681Z,31.37
2018-01-15T10:37:51.088Z,35.03
2018-01-15T10:40:20.252Z,33.07
2018-01-15T10:42:48.749Z,36.73
2018-01-15T10:45:17.317Z,33.57
2018-01-15T10:47:45.722Z,40.40
2018-01-15T10:50:14.117Z,41.50
2018-01-15T10:52:42.547Z,40.00
2018-01-15T10:55:10.982Z,34.60
2018-01-15T10:57:39.385Z,31.40
2018-01-15T11:00:07.848Z,37.30
2018-01-15T11:02:37.006Z,39.60
2018-01-15T11:05:05.424Z,40.90
2018-01-15T11:07:34.276Z,33.20
2018-01-15T11:10:02.685Z,29.17
2018-01-15T11:12:31.832Z,26.73
2018-01-15T11:15:00.255Z,35.87
2018-01-15T11:17:29.420Z,32.47
2018-01-15T11:19:57.832Z,27.47
2018-01-15T11:22:27.112Z,30.87
2018-01-15T11:24:55.525Z,33.07
2018-01-15T11:27:24.254Z,39.77
2018-01-15T11:29:52.787Z,36.07
2018-01-15T11:32:21.202Z,39.47
2018-01-15T11:34:49.596Z,34.80
2018-01-15T11:37:18.181Z,26.47
2018-01-15T11:39:46.574Z,30.47
2018-01-15T11:42:14.979Z,37.97
2018-01-15T11:44:44.476Z,26.93
2018-01-15T11:47:13.615Z,33.80
2018-01-15T11:49:42.012Z,42.50
2018-01-15T11:52:10.614Z,27.53
2018-01-15T11:54:39.847Z,27.83
2018-01-15T11:57:08.266Z,44.00
2018-01-15T11:59:36.717Z,33.83
2018-01-15T12:02:05.086Z,43.00
2018-01-15T12:04:34.252Z,41.63
2018-01-15T12:07:02.775Z,36.40
2018-01-15T12:09:31.258Z,31.97
2018-01-15T12:11:59.676Z,28.73
2018-01-15T12:14:28.197Z,21.23
2018-01-15T12:16:57.358Z,41.13
2018-01-15T12:19:25.895Z,49.60
2018-01-15T12:21:54.452Z,31.73
2018-01-15T12:24:22.898Z,43.60
2018-01-15T12:26:51.389Z,17.07
2018-01-15T12:29:20.123Z,29.73
2018-01-15T12:31:48.564Z,32.40
2018-01-15T12:34:16.985Z,39.77
2018-01-15T12:36:45.446Z,37.30
2018-01-15T12:39:14.590Z,37.03
2018-01-15T12:41:42.979Z,27.73
2018-01-15T12:44:12.384Z,40.30
2018-01-15T12:46:41.181Z,42.90
2018-01-15T12:49:09.586Z,30.30
2018-01-15T12:51:38.874Z,40.63
2018-01-15T12:54:07.307Z,32.53
2018-01-15T12:56:35.687Z,45.70
2018-01-15T12:59:04.278Z,32.30
2018-01-15T13:01:32.779Z,34.07
2018-01-15T13:04:01.154Z,28.80
2018-01-15T13:06:41.535Z,35.00
2018-01-15T13:09:11.882Z,23.60
2018-01-15T13:11:40.299Z,37.93
2018-01-15T13:14:10.406Z,24.43
2018-01-15T13:16:38.815Z,25.30
2018-01-15T13:19:07.217Z,26.63
2018-01-15T13:21:35.690Z,44.40
2018-01-15T13:24:04.878Z,38.20
2018-01-15T13:26:33.308Z,37.27
2018-01-15T13:29:01.970Z,29.13
2018-01-15T13:31:31.283Z,24.67
2018-01-15T13:34:00.544Z,28.60
2018-01-15T13:36:29.115Z,28.27
2018-01-15T13:38:58.314Z,25.17
2018-01-15T13:41:28.835Z,26.10
2018-01-15T13:43:57.272Z,25.57
2018-01-15T13:46:26.469Z,25.77
2018-01-15T13:48:55.613Z,27.63
2018-01-15T13:51:24.194Z,27.10
2018-01-15T13:53:53.757Z,32.53
2018-01-15T13:56:24.333Z,29.90
2018-01-15T13:58:53.548Z,28.90
2018-01-15T14:01:21.978Z,31.13
2018-01-15T14:03:50.369Z,26.03
2018-01-15T14:06:19.129Z,29.10
2018-01-15T14:08:47.663Z,20.20
2018-01-15T14:11:16.116Z,29.53
2018-01-15T14:13:44.643Z,34.77
2018-01-15T14:16:13.123Z,28.40
2018-01-15T14:18:41.662Z,27.73
2018-01-15T14:21:10.269Z,32.77
2018-01-15T14:23:39.271Z,32.40
2018-01-15T14:26:08.785Z,24.00
2018-01-15T14:28:37.212Z,25.27
2018-01-15T14:31:05.593Z,17.23
2018-01-15T14:33:34.342Z,21.93
2018-01-15T14:36:03.732Z,26.27
2018-01-15T14:38:32.128Z,18.43
2018-01-15T14:41:00.553Z,24.23
2018-01-15T14:43:29.439Z,17.23
2018-01-15T14:45:57.840Z,21.50
2018-01-15T14:48:26.543Z,18.50
2018-01-15T14:50:55.408Z,14.03
2018-01-15T14:53:23.894Z,20.30
2018-01-15T14:55:52.293Z,20.93
2018-01-15T14:58:20.910Z,26.20
2018-01-15T15:00:50.088Z,25.23
2018-01-15T15:03:18.503Z,16.87
2018-01-15T15:05:47.779Z,14.00
2018-01-15T15:08:16.953Z,20.80
2018-01-15T15:10:45.341Z,10.20
2018-01-15T15:13:14.034Z,22.87
2018-01-15T15:15:42.456Z,27.67
2018-01-15T15:18:10.878Z,20.10
2018-01-15T15:20:39.667Z,17.83
2018-01-15T15:23:08.152Z,18.83
2018-01-15T15:25:36.575Z,19.20
2018-01-15T15:28:05.006Z,23.47
2018-01-15T15:30:33.388Z,18.77
2018-01-15T15:33:01.794Z,32.33
2018-01-15T15:35:31.379Z,32.73
2018-01-15T15:37:59.813Z,19.97
2018-01-15T15:40:28.288Z,14.13
2018-01-15T15:42:56.822Z,22.90
2018-01-15T15:45:25.188Z,23.30
2018-01-15T15:47:53.588Z,19.23
2018-01-15T15:50:22.137Z,17.87
2018-01-15T15:52:50.503Z,34.97
2018-01-15T15:55:19.116Z,30.57
2018-01-15T15:57:47.635Z,30.83
2018-01-15T16:00:16.844Z,19.93
2018-01-15T16:02:45.480Z,19.80
2018-01-15T16:05:13.934Z,15.80
2018-01-15T16:07:42.516Z,32.33
2018-01-15T16:10:11.703Z,34.80
2018-01-15T16:12:40.118Z,17.30
2018-01-15T16:15:08.892Z,22.47
2018-01-15T16:17:37.334Z,24.17
2018-01-15T16:20:06.735Z,21.23
2018-01-15T16:25:34.401Z,19.80
2018-01-15T16:28:02.855Z,29.37
2018-01-15T16:30:31.375Z,24.47
2018-01-15T16:33:00.669Z,29.53
2018-01-15T16:35:29.893Z,17.60
2018-01-15T16:37:58.991Z,20.60
2018-01-15T16:40:27.627Z,27.67
2018-01-15T16:42:56.094Z,24.57
2018-01-15T16:45:24.548Z,26.00
2018-01-15T16:47:53.167Z,21.27
2018-01-15T16:50:26.405Z,24.53
2018-01-15T16:52:54.915Z,15.67
2018-01-15T16:55:23.340Z,16.90
2018-01-15T16:57:51.745Z,15.10
2018-01-15T17:00:20.249Z,17.80
2018-01-15T17:02:48.690Z,24.10
2018-01-15T17:05:17.849Z,26.00
2018-01-15T17:07:46.294Z,22.00
2018-01-15T17:10:14.926Z,17.77
2018-01-15T17:12:43.308Z,19.67
2018-01-15T17:15:11.876Z,23.33
2018-01-15T17:17:40.267Z,36.87
2018-01-15T17:20:08.672Z,19.10
2018-01-15T17:22:37.915Z,22.50
2018-01-15T17:25:06.333Z,20.30
2018-01-15T17:27:34.731Z,23.47
2018-01-15T17:30:04.976Z,18.67
2018-01-15T17:32:33.362Z,29.00
2018-01-15T17:35:01.747Z,31.13
2018-01-15T17:37:30.182Z,21.37
2018-01-15T17:39:59.192Z,19.73
2018-01-15T17:42:28.398Z,25.87
2018-01-15T17:44:57.238Z,16.87
2018-01-15T17:47:25.613Z,21.83
2018-01-15T17:49:54.035Z,22.37
2018-01-15T17:52:22.699Z,24.03
2018-01-15T17:54:51.085Z,19.50
2018-01-15T17:57:20.222Z,21.93
2018-01-15T17:59:48.719Z,27.73
2018-01-15T18:02:17.185Z,26.53
2018-01-15T18:04:45.723Z,24.23
2018-01-15T18:07:14.313Z,23.83
2018-01-15T18:09:43.464Z,27.97
2018-01-15T18:12:12.618Z,23.30
2018-01-15T18:14:41.889Z,24.53
2018-01-15T18:17:10.288Z,25.87
2018-01-15T18:19:39.455Z,32.37
2018-01-15T18:22:08.073Z,30.47
2018-01-15T18:24:36.548Z,25.27
2018-01-15T18:27:05.694Z,20.83
2018-01-15T18:29:34.941Z,27.10
2018-01-15T18:32:04.154Z,27.47
2018-01-15T18:34:33.306Z,25.43
2018-01-15T18:37:01.891Z,25.40
2018-01-15T18:39:30.286Z,25.10
2018-01-15T18:41:59.797Z,19.03
2018-01-15T18:44:28.225Z,27.60
2018-01-15T18:46:56.611Z,24.00
2018-01-15T18:49:25.033Z,31.87
2018-01-15T18:51:53.481Z,21.33
2018-01-15T18:54:21.944Z,27.50
2018-01-15T18:56:50.362Z,18.63
2018-01-15T18:59:18.912Z,20.20
2018-01-15T19:01:48.062Z,24.47
2018-01-15T19:04:17.202Z,27.63
2018-01-15T19:06:45.724Z,26.20
2018-01-15T19:09:14.120Z,23.90
2018-01-15T19:11:43.281Z,27.30
2018-01-15T19:14:12.006Z,22.80
2018-01-15T19:16:40.399Z,18.73
2018-01-15T19:19:09.087Z,26.33
2018-01-15T19:21:37.738Z,32.97
2018-01-15T19:24:06.156Z,28.37
2018-01-15T19:26:34.581Z,31.87
2018-01-15T19:29:03.352Z,17.33
2018-01-15T19:31:31.793Z,23.67
2018-01-15T19:34:00.968Z,25.73
2018-01-15T19:39:33.596Z,24.37
2018-01-15T19:42:03.540Z,19.70
2018-01-15T19:44:37.443Z,23.40
2018-01-15T19:47:11.545Z,16.13
2018-01-15T19:49:45.403Z,14.93
2018-01-15T19:52:19.494Z,28.07
2018-01-15T19:54:53.465Z,28.03
2018-01-15T19:57:27.736Z,16.30
2018-01-15T20:00:01.844Z,20.10
2018-01-15T20:02:36.288Z,15.60
2018-01-15T20:05:10.377Z,16.60
2018-01-15T20:07:44.350Z,15.13
2018-01-15T20:10:18.398Z,21.07
2018-01-15T20:12:46.891Z,24.40
2018-01-15T20:15:15.299Z,18.63
2018-01-15T20:17:44.442Z,24.23
2018-01-15T20:20:12.957Z,15.43
2018-01-15T20:22:41.329Z,12.77
2018-01-15T20:25:11.616Z,11.30
2018-01-15T20:27:40.125Z,19.17
2018-01-15T20:30:08.519Z,14.53
2018-01-15T20:32:36.907Z,20.47
2018-01-15T20:35:06.244Z,14.20
2018-01-15T20:37:34.644Z,19.80
2018-01-15T20:40:03.031Z,16.67
2018-01-15T20:42:31.950Z,14.53
2018-01-15T20:45:00.395Z,13.13
2018-01-15T20:47:28.766Z,16.23
2018-01-15T20:49:57.249Z,11.70
2018-01-15T20:52:25.697Z,12.30
2018-01-15T20:54:54.063Z,9.77
2018-01-15T20:57:23.236Z,9.13
2018-01-15T20:59:51.616Z,9.60
2018-01-15T21:02:20.045Z,16.20
2018-01-15T21:04:48.493Z,13.47
2018-01-15T21:07:17.646Z,5.47
2018-01-15T21:09:46.025Z,17.97
2018-01-15T21:12:14.503Z,13.37
2018-01-15T21:14:42.935Z,7.97
2018-01-15T21:17:12.139Z,8.50
2018-01-15T21:19:40.662Z,12.17
2018-01-15T21:22:09.026Z,4.23
2018-01-15T21:24:37.400Z,6.60
2018-01-15T21:27:06.328Z,10.93
2018-01-15T21:29:34.723Z,9.13
2018-01-15T21:32:03.120Z,12.33
2018-01-15T21:34:32.443Z,9.77
2018-01-15T21:37:00.821Z,7.70
2018-01-15T21:39:29.239Z,6.90
2018-01-15T21:41:57.648Z,6.33
2018-01-15T21:44:26.538Z,7.37
2018-01-15T21:46:55.680Z,13.20
2018-01-15T21:49:24.070Z,8.50
2018-01-15T21:51:52.474Z,9.97
2018-01-15T21:54:21.322Z,7.33
2018-01-15T21:56:49.746Z,7.10
2018-01-15T21:59:18.167Z,3.07
2018-01-15T22:01:46.538Z,5.80
2018-01-15T22:04:16.226Z,8.87
2018-01-15T22:06:44.620Z,10.60
2018-01-15T22:09:13.785Z,4.50
2018-01-15T22:11:42.282Z,10.50
2018-01-15T22:14:11.432Z,8.47
2018-01-15T22:16:39.824Z,9.43
2018-01-15T22:19:08.231Z,6.30
2018-01-15T22:21:36.609Z,6.30
2018-01-15T22:24:05.759Z,3.37
2018-01-15T22:26:34.183Z,8.80
2018-01-15T22:29:02.578Z,3.17
2018-01-15T22:31:31.736Z,4.20
2018-01-15T22:34:00.342Z,5.03
2018-01-15T22:36:28.729Z,7.13
2018-01-15T22:38:57.117Z,8.73
2018-01-15T22:41:26.557Z,14.57
2018-01-15T22:43:54.969Z,12.00
2018-01-15T22:46:23.527Z,10.73
2018-01-15T22:48:52.028Z,5.63
2018-01-15T22:51:21.159Z,4.83
2018-01-15T22:53:50.407Z,10.13
2018-01-15T22:56:18.966Z,6.07
2018-01-15T22:58:47.338Z,5.53
2018-01-15T23:01:15.726Z,2.37
2018-01-15T23:03:44.389Z,5.80
2018-01-15T23:06:13.642Z,1.83
2018-01-15T23:08:42.133Z,3.80
2018-01-15T23:11:10.686Z,5.20
2018-01-15T23:13:39.075Z,5.17
2018-01-15T23:16:07.456Z,15.00
2018-01-15T23:18:36.023Z,4.53
2018-01-15T23:21:04.391Z,2.93
2018-01-15T23:23:32.755Z,4.40
2018-01-15T23:26:02.127Z,5.90
2018-01-15T23:28:30.501Z,3.37
2018-01-15T23:30:59.039Z,5.87
2018-01-15T23:33:27.539Z,2.50
2018-01-15T23:35:55.907Z,6.17
2018-01-15T23:38:24.282Z,4.20
2018-01-15T23:40:52.766Z,3.43
2018-01-15T23:43:21.167Z,8.50
2018-01-15T23:45:49.549Z,4.67
2018-01-15T23:48:18.387Z,3.17
2018-01-15T23:50:46.784Z,5.23
2018-01-15T23:53:15.168Z,2.40
2018-01-15T23:55:43.731Z,3.27
2018-01-15T23:58:12.109Z,3.60
